createdAt,value
2022-11-16T00:00:23.543Z,11.55
2022-11-16T00:02:49.812Z,11.55
2022-11-16T00:05:16.125Z,11.56
2022-11-16T00:07:42.393Z,11.56
2022-11-16T00:10:09.160Z,11.56
2022-11-16T00:12:36.799Z,11.57
2022-11-16T00:15:03.296Z,11.58
2022-11-16T00:17:29.582Z,11.59
2022-11-16T00:19:55.885Z,11.60
2022-11-16T00:22:22.174Z,11.60
2022-11-16T00:24:48.443Z,11.60
2022-11-16T00:27:14.750Z,11.62
2022-11-16T00:29:42.359Z,11.63
2022-11-16T00:32:08.644Z,11.63
2022-11-16T00:34:34.926Z,11.62
2022-11-16T00:37:01.187Z,11.62
2022-11-16T00:39:27.462Z,11.61
2022-11-16T00:41:53.958Z,11.62
2022-11-16T00:44:20.235Z,11.59
2022-11-16T00:46:47.881Z,11.58
2022-11-16T00:49:14.386Z,11.57
2022-11-16T00:51:40.673Z,11.57
2022-11-16T00:54:07.689Z,11.58
2022-11-16T00:56:33.972Z,11.59
2022-11-16T00:59:00.266Z,11.57
2022-11-16T01:01:26.595Z,11.58
2022-11-16T01:03:54.297Z,11.59
2022-11-16T01:06:20.602Z,11.58
2022-11-16T01:08:46.905Z,11.58
2022-11-16T01:11:14.357Z,11.60
2022-11-16T01:13:40.656Z,11.59
2022-11-16T01:16:07.189Z,11.57
2022-11-16T01:18:33.602Z,11.57
2022-11-16T01:21:01.418Z,11.55
2022-11-16T01:23:27.693Z,11.55
2022-11-16T01:25:55.968Z,11.54
2022-11-16T01:28:22.250Z,11.53
2022-11-16T01:30:48.554Z,11.50
2022-11-16T01:33:14.829Z,11.52
2022-11-16T01:35:42.896Z,11.52
2022-11-16T01:38:10.525Z,11.53
2022-11-16T01:40:36.885Z,11.53
2022-11-16T01:43:03.168Z,11.53
2022-11-16T01:45:33.940Z,11.53
2022-11-16T01:48:00.309Z,11.53
2022-11-16T01:50:26.649Z,11.53
2022-11-16T01:52:54.934Z,11.52
2022-11-16T01:55:22.682Z,11.53
2022-11-16T01:57:49.478Z,11.53
2022-11-16T02:00:16.571Z,11.53
2022-11-16T02:02:43.187Z,11.55
2022-11-16T02:05:10.865Z,11.56
2022-11-16T02:08:03.967Z,11.56
2022-11-16T02:10:38.075Z,11.57
2022-11-16T02:13:13.844Z,11.56
2022-11-16T02:15:44.338Z,11.56
2022-11-16T02:18:18.583Z,11.56
2022-11-16T02:20:50.432Z,11.54
2022-11-16T02:23:25.912Z,11.53
2022-11-16T02:25:58.808Z,11.55
2022-11-16T02:28:30.126Z,11.56
2022-11-16T02:31:00.186Z,11.57
2022-11-16T02:33:31.139Z,11.58
2022-11-16T02:35:59.014Z,11.59
2022-11-16T02:38:27.966Z,11.61
2022-11-16T02:40:57.236Z,11.62
2022-11-16T02:43:28.096Z,11.64
2022-11-16T02:45:56.902Z,11.66
2022-11-16T02:48:25.942Z,11.68
2022-11-16T02:50:53.529Z,11.70
2022-11-16T02:53:20.993Z,11.71
2022-11-16T02:55:47.354Z,11.73
2022-11-16T02:58:17.390Z,11.72
2022-11-16T03:00:46.830Z,11.73
2022-11-16T03:03:17.199Z,11.72
2022-11-16T03:05:47.934Z,11.70
2022-11-16T03:08:17.161Z,11.71
2022-11-16T03:10:46.615Z,11.69
2022-11-16T03:13:13.926Z,11.67
2022-11-16T03:15:40.991Z,11.67
2022-11-16T03:18:08.432Z,11.68
2022-11-16T03:20:35.723Z,11.67
2022-11-16T03:23:05.031Z,11.66
2022-11-16T03:25:33.629Z,11.67
2022-11-16T03:28:03.651Z,11.66
2022-11-16T03:30:31.952Z,11.66
2022-11-16T03:33:03.950Z,11.67
2022-11-16T03:35:34.342Z,11.68
2022-11-16T03:38:02.804Z,11.70
2022-11-16T03:40:31.689Z,11.73
2022-11-16T03:42:59.034Z,11.73
2022-11-16T03:45:25.398Z,11.76
2022-11-16T03:47:51.694Z,11.76
2022-11-16T03:50:18.002Z,11.76
2022-11-16T03:52:44.274Z,11.77
2022-11-16T03:55:10.636Z,11.73
2022-11-16T03:57:38.276Z,11.76
2022-11-16T04:00:05.083Z,11.73
2022-11-16T04:02:31.341Z,11.70
2022-11-16T04:04:57.611Z,11.64
2022-11-16T04:07:23.938Z,11.58
2022-11-16T04:09:50.243Z,11.55
2022-11-16T04:12:16.573Z,11.52
2022-11-16T04:14:44.395Z,11.49
2022-11-16T04:17:11.812Z,11.48
2022-11-16T04:19:38.067Z,11.47
2022-11-16T04:22:06.621Z,11.45
2022-11-16T04:24:35.262Z,11.45
2022-11-16T04:27:04.223Z,11.44
2022-11-16T04:29:30.614Z,11.44
2022-11-16T04:31:58.318Z,11.44
2022-11-16T04:34:24.658Z,11.41
2022-11-16T04:36:50.920Z,11.41
2022-11-16T04:39:17.215Z,11.38
2022-11-16T04:41:43.510Z,11.35
2022-11-16T04:44:09.976Z,11.32
2022-11-16T04:46:36.262Z,11.27
2022-11-16T04:49:03.878Z,11.26
2022-11-16T04:51:30.156Z,11.29
2022-11-16T04:53:56.454Z,11.28
2022-11-16T04:56:22.719Z,11.28
2022-11-16T04:58:48.992Z,11.26
2022-11-16T05:01:15.346Z,11.28
2022-11-16T05:03:41.650Z,11.28
2022-11-16T05:06:09.270Z,11.26
2022-11-16T05:08:35.779Z,11.23
2022-11-16T05:11:02.367Z,11.21
2022-11-16T05:13:28.668Z,11.18
2022-11-16T05:15:56.308Z,11.16
2022-11-16T05:18:22.605Z,11.12
2022-11-16T05:20:48.889Z,11.11
2022-11-16T05:23:16.771Z,11.07
2022-11-16T05:25:43.543Z,10.99
2022-11-16T05:28:09.834Z,10.92
2022-11-16T05:30:36.119Z,10.87
2022-11-16T05:33:02.408Z,10.81
2022-11-16T05:35:28.705Z,10.76
2022-11-16T05:37:54.979Z,10.70
2022-11-16T05:40:24.897Z,10.64
2022-11-16T05:42:51.187Z,10.58
2022-11-16T05:45:21.020Z,10.54
2022-11-16T05:47:47.610Z,10.49
2022-11-16T05:50:13.899Z,10.42
2022-11-16T05:52:40.161Z,10.37
2022-11-16T05:55:06.867Z,10.32
2022-11-16T05:57:34.474Z,10.26
2022-11-16T06:00:00.755Z,10.23
2022-11-16T06:02:27.458Z,10.19
2022-11-16T06:04:53.723Z,10.15
2022-11-16T06:07:20.021Z,10.13
2022-11-16T06:09:46.330Z,10.11
2022-11-16T06:12:12.590Z,10.08
2022-11-16T06:14:40.258Z,10.04
2022-11-16T06:17:06.519Z,9.99
2022-11-16T06:19:32.879Z,9.95
2022-11-16T06:21:59.208Z,9.87
2022-11-16T06:24:25.500Z,9.82
2022-11-16T06:26:51.768Z,9.79
2022-11-16T06:29:18.054Z,9.77
2022-11-16T06:31:45.706Z,9.75
2022-11-16T06:34:12.011Z,9.72
2022-11-16T06:36:38.461Z,9.69
2022-11-16T06:39:05.809Z,9.65
2022-11-16T06:41:32.146Z,9.62
2022-11-16T06:43:58.470Z,9.61
2022-11-16T06:46:24.888Z,9.56
2022-11-16T06:48:52.482Z,9.52
2022-11-16T06:51:18.954Z,9.50
2022-11-16T06:53:45.309Z,9.48
2022-11-16T06:56:13.366Z,9.47
2022-11-16T06:58:42.609Z,9.48
2022-11-16T07:01:10.084Z,9.48
2022-11-16T07:03:36.365Z,9.46
2022-11-16T07:06:06.339Z,9.46
2022-11-16T07:08:32.981Z,9.44
2022-11-16T07:11:04.130Z,9.43
2022-11-16T07:13:31.492Z,9.44
2022-11-16T07:16:00.617Z,9.43
2022-11-16T07:18:26.887Z,9.42
2022-11-16T07:20:53.161Z,9.42
2022-11-16T07:23:20.814Z,9.43
2022-11-16T07:25:47.106Z,9.41
2022-11-16T07:28:13.473Z,9.41
2022-11-16T07:30:39.757Z,9.41
2022-11-16T07:33:06.036Z,9.42
2022-11-16T07:35:32.320Z,9.46
2022-11-16T07:37:58.602Z,9.47
2022-11-16T07:40:26.250Z,9.48
2022-11-16T07:42:52.584Z,9.47
2022-11-16T07:45:18.870Z,9.50
2022-11-16T07:47:45.141Z,9.50
2022-11-16T07:50:11.429Z,9.53
2022-11-16T07:52:38.003Z,9.54
2022-11-16T07:55:04.547Z,9.56
2022-11-16T07:57:32.223Z,9.57
2022-11-16T07:59:58.504Z,9.58
2022-11-16T08:02:24.779Z,9.60
2022-11-16T08:04:51.055Z,9.63
2022-11-16T08:07:17.384Z,9.64
2022-11-16T08:09:43.834Z,9.70
2022-11-16T08:12:10.200Z,9.71
2022-11-16T08:14:37.794Z,9.74
2022-11-16T08:17:04.488Z,9.76
2022-11-16T08:19:30.754Z,9.79
2022-11-16T08:21:57.109Z,9.82
2022-11-16T08:24:23.374Z,9.85
2022-11-16T08:26:49.647Z,9.91
2022-11-16T08:29:15.981Z,9.94
2022-11-16T08:31:44.293Z,9.96
2022-11-16T08:34:10.574Z,10.00
2022-11-16T08:36:36.881Z,10.08
2022-11-16T08:39:03.278Z,10.13
2022-11-16T08:41:29.695Z,10.16
2022-11-16T08:43:56.018Z,10.21
2022-11-16T08:46:22.352Z,10.34
2022-11-16T08:48:54.372Z,10.45
2022-11-16T08:51:21.179Z,10.56
2022-11-16T08:53:47.744Z,10.61
2022-11-16T08:56:14.210Z,10.65
2022-11-16T08:58:41.171Z,10.64
2022-11-16T09:01:07.995Z,10.65
2022-11-16T09:03:34.266Z,10.61
2022-11-16T09:06:01.893Z,10.63
2022-11-16T09:08:28.186Z,10.64
2022-11-16T09:10:54.477Z,10.66
2022-11-16T09:13:20.783Z,10.65
2022-11-16T09:15:47.080Z,10.66
2022-11-16T09:18:13.442Z,10.69
2022-11-16T09:20:43.195Z,10.74
2022-11-16T09:23:10.826Z,10.75
2022-11-16T09:25:37.134Z,10.75
2022-11-16T09:28:03.517Z,10.77
2022-11-16T09:30:29.812Z,10.80
2022-11-16T09:32:57.846Z,10.85
2022-11-16T09:35:24.209Z,10.81
2022-11-16T09:37:50.486Z,10.88
2022-11-16T09:40:18.407Z,10.95
2022-11-16T09:42:51.667Z,11.00
2022-11-16T09:45:20.344Z,11.04
2022-11-16T09:47:49.070Z,11.15
2022-11-16T09:50:20.247Z,11.18
2022-11-16T09:52:49.243Z,11.23
2022-11-16T09:55:23.686Z,11.30
2022-11-16T09:57:52.116Z,11.34
2022-11-16T10:00:20.006Z,11.39
2022-11-16T10:02:48.268Z,11.44
2022-11-16T10:05:20.737Z,11.51
2022-11-16T10:07:50.027Z,11.53
2022-11-16T10:10:17.713Z,11.55
2022-11-16T10:12:48.597Z,11.60
2022-11-16T10:15:33.778Z,11.66
2022-11-16T10:18:08.615Z,11.73
2022-11-16T10:20:47.349Z,11.76
2022-11-16T10:23:20.747Z,11.79
2022-11-16T10:25:52.412Z,11.82
2022-11-16T10:28:33.458Z,11.84
2022-11-16T10:31:04.049Z,11.89
2022-11-16T10:33:31.459Z,11.93
2022-11-16T10:35:57.950Z,11.93
2022-11-16T10:38:27.331Z,11.94
2022-11-16T10:40:56.147Z,12.02
2022-11-16T10:43:23.931Z,12.00
2022-11-16T10:45:53.861Z,12.04
2022-11-16T10:48:29.119Z,12.04
2022-11-16T10:50:55.831Z,12.05
2022-11-16T10:53:29.393Z,12.08
2022-11-16T10:56:01.791Z,12.07
2022-11-16T10:58:48.091Z,12.13
2022-11-16T11:01:26.852Z,12.17
2022-11-16T11:03:53.171Z,12.24
2022-11-16T11:06:23.356Z,12.23
2022-11-16T11:08:49.631Z,12.23
2022-11-16T11:11:19.950Z,12.23
2022-11-16T11:13:46.267Z,12.18
2022-11-16T11:16:13.670Z,12.15
2022-11-16T11:18:41.356Z,12.11
2022-11-16T11:21:12.541Z,12.13
2022-11-16T11:23:41.647Z,12.03
2022-11-16T11:26:11.080Z,11.95
2022-11-16T11:28:38.264Z,11.96
2022-11-16T11:31:06.056Z,11.97
2022-11-16T11:33:34.290Z,11.97
2022-11-16T11:36:04.452Z,12.00
2022-11-16T11:38:31.186Z,12.02
2022-11-16T11:40:59.427Z,12.04
2022-11-16T11:43:25.901Z,12.05
2022-11-16T11:45:56.522Z,11.99
2022-11-16T11:48:27.696Z,12.00
2022-11-16T11:50:54.999Z,11.98
2022-11-16T11:53:32.763Z,12.02
2022-11-16T11:55:59.602Z,12.08
2022-11-16T11:58:28.370Z,12.14
2022-11-16T12:00:59.395Z,12.18
2022-11-16T12:03:46.457Z,12.22
2022-11-16T12:06:18.863Z,12.27
2022-11-16T12:08:54.526Z,12.31
2022-11-16T12:11:26.672Z,12.35
2022-11-16T12:14:00.279Z,12.36
2022-11-16T12:16:29.006Z,12.44
2022-11-16T12:19:00.095Z,12.49
2022-11-16T12:21:34.050Z,12.45
2022-11-16T12:24:09.478Z,12.49
2022-11-16T12:26:43.064Z,12.47
2022-11-16T12:29:20.199Z,12.40
2022-11-16T12:31:53.475Z,12.33
2022-11-16T12:34:23.484Z,12.33
2022-11-16T12:36:55.200Z,12.34
2022-11-16T12:39:25.839Z,12.35
2022-11-16T12:42:12.840Z,12.32
2022-11-16T12:44:49.407Z,12.33
2022-11-16T12:47:17.735Z,12.35
2022-11-16T12:49:52.137Z,12.30
2022-11-16T12:52:25.857Z,12.28
2022-11-16T12:55:28.920Z,12.27
2022-11-16T12:57:51.526Z,12.27
2022-11-16T13:00:18.950Z,12.24
2022-11-16T13:02:55.046Z,12.22
2022-11-16T13:05:23.198Z,12.25
2022-11-16T13:07:52.359Z,12.18
2022-11-16T13:10:21.751Z,12.13
2022-11-16T13:12:52.708Z,12.07
2022-11-16T13:15:24.803Z,12.08
2022-11-16T13:17:53.963Z,12.08
2022-11-16T13:20:28.466Z,12.12
2022-11-16T13:22:58.213Z,12.19
2022-11-16T13:25:29.075Z,12.28
2022-11-16T13:27:59.832Z,12.35
2022-11-16T13:30:27.813Z,12.39
2022-11-16T13:33:01.610Z,12.38
2022-11-16T13:35:28.292Z,12.31
2022-11-16T13:37:54.585Z,12.30
2022-11-16T13:40:22.632Z,12.29
2022-11-16T13:43:00.871Z,12.28
2022-11-16T13:45:31.234Z,12.27
2022-11-16T13:47:58.546Z,12.25
2022-11-16T13:50:30.874Z,12.23
2022-11-16T13:55:54.520Z,12.22
2022-11-16T13:58:23.193Z,12.19
2022-11-16T14:00:55.519Z,12.18
2022-11-16T14:03:30.706Z,12.14
2022-11-16T14:05:57.237Z,12.10
2022-11-16T14:08:42.259Z,12.08
2022-11-16T14:11:23.432Z,12.06
2022-11-16T14:13:51.384Z,12.02
2022-11-16T14:16:36.208Z,11.98
2022-11-16T14:19:04.629Z,11.89
2022-11-16T14:21:39.286Z,11.82
2022-11-16T14:24:15.283Z,11.76
2022-11-16T14:26:46.838Z,11.70
2022-11-16T14:29:22.410Z,11.65
2022-11-16T14:31:51.000Z,11.58
2022-11-16T14:34:18.890Z,11.53
2022-11-16T14:36:45.917Z,11.50
2022-11-16T14:39:14.511Z,11.49
2022-11-16T14:41:43.271Z,11.50
2022-11-16T14:44:10.186Z,11.50
2022-11-16T14:46:38.638Z,11.50
2022-11-16T14:49:10.734Z,11.52
2022-11-16T14:51:41.261Z,11.55
2022-11-16T14:54:12.944Z,11.57
2022-11-16T14:56:54.376Z,11.58
2022-11-16T14:59:20.665Z,11.59
2022-11-16T15:01:48.516Z,11.63
2022-11-16T15:04:16.632Z,11.67
2022-11-16T15:06:45.497Z,11.68
2022-11-16T15:09:14.380Z,11.70
2022-11-16T15:11:41.787Z,11.71
2022-11-16T15:14:08.855Z,11.68
2022-11-16T15:16:47.890Z,11.63
2022-11-16T15:19:15.536Z,11.60
2022-11-16T15:21:49.502Z,11.56
2022-11-16T15:24:30.487Z,11.50
2022-11-16T15:27:01.856Z,11.44
2022-11-16T15:29:29.952Z,11.38
2022-11-16T15:31:56.247Z,11.34
2022-11-16T15:34:23.907Z,11.27
2022-11-16T15:36:50.277Z,11.24
2022-11-16T15:39:18.494Z,11.20
2022-11-16T15:41:44.961Z,11.15
2022-11-16T15:44:15.602Z,11.11
2022-11-16T15:46:43.586Z,11.07
2022-11-16T15:49:15.019Z,11.03
2022-11-16T15:51:43.814Z,10.99
2022-11-16T15:54:13.899Z,10.97
2022-11-16T15:56:40.519Z,10.92
2022-11-16T15:59:10.326Z,10.89
2022-11-16T16:01:40.871Z,10.86
2022-11-16T16:04:07.387Z,10.81
2022-11-16T16:06:45.867Z,10.77
2022-11-16T16:09:14.329Z,10.72
2022-11-16T16:11:40.788Z,10.63
2022-11-16T16:14:08.507Z,10.55
2022-11-16T16:16:35.484Z,10.50
2022-11-16T16:19:08.300Z,10.48
2022-11-16T16:21:41.588Z,10.39
2022-11-16T16:24:09.433Z,10.35
2022-11-16T16:26:35.732Z,10.30
2022-11-16T16:29:02.005Z,10.26
2022-11-16T16:31:28.299Z,10.20
2022-11-16T16:33:54.571Z,10.19
2022-11-16T16:36:20.863Z,10.15
2022-11-16T16:38:47.180Z,10.13
2022-11-16T16:41:23.754Z,10.10
2022-11-16T16:43:50.434Z,10.07
2022-11-16T16:46:16.727Z,10.04
2022-11-16T16:48:44.744Z,10.02
2022-11-16T16:51:11.819Z,9.99
2022-11-16T16:53:38.087Z,9.98
2022-11-16T16:56:04.738Z,9.96
2022-11-16T16:58:32.368Z,9.95
2022-11-16T17:01:03.132Z,9.89
2022-11-16T17:03:30.278Z,9.88
2022-11-16T17:05:59.108Z,9.83
2022-11-16T17:08:25.483Z,9.82
2022-11-16T17:10:51.759Z,9.83
2022-11-16T17:13:18.048Z,9.81
2022-11-16T17:15:45.814Z,9.80
2022-11-16T17:18:12.102Z,9.79
2022-11-16T17:20:41.381Z,9.78
2022-11-16T17:23:11.475Z,9.74
2022-11-16T17:25:37.848Z,9.67
2022-11-16T17:28:04.182Z,9.64
2022-11-16T17:30:30.514Z,9.61
2022-11-16T17:32:58.124Z,9.55
2022-11-16T17:35:24.418Z,9.52
2022-11-16T17:37:51.385Z,9.49
2022-11-16T17:40:17.824Z,9.44
2022-11-16T17:42:44.083Z,9.42
2022-11-16T17:45:10.518Z,9.40
2022-11-16T17:47:36.813Z,9.37
2022-11-16T17:50:04.884Z,9.36
2022-11-16T17:52:31.177Z,9.34
2022-11-16T17:54:57.541Z,9.33
2022-11-16T17:57:23.847Z,9.25
2022-11-16T17:59:50.117Z,9.25
2022-11-16T18:02:16.916Z,9.25
2022-11-16T18:04:48.108Z,9.29
2022-11-16T18:07:18.675Z,9.32
2022-11-16T18:09:45.025Z,9.35
2022-11-16T18:12:11.363Z,9.41
2022-11-16T18:14:37.663Z,9.45
2022-11-16T18:17:03.921Z,9.51
2022-11-16T18:19:30.200Z,9.56
2022-11-16T18:21:56.536Z,9.60
2022-11-16T18:24:24.236Z,9.64
2022-11-16T18:26:50.494Z,9.68
2022-11-16T18:29:16.779Z,9.72
2022-11-16T18:31:43.081Z,9.74
2022-11-16T18:34:11.350Z,9.73
2022-11-16T18:36:37.619Z,9.75
2022-11-16T18:39:03.988Z,9.74
2022-11-16T18:41:31.628Z,9.74
2022-11-16T18:43:58.599Z,9.77
2022-11-16T18:46:26.133Z,9.74
2022-11-16T18:48:52.790Z,9.74
2022-11-16T18:51:19.867Z,9.75
2022-11-16T18:53:46.326Z,9.74
2022-11-16T18:56:12.887Z,9.73
2022-11-16T18:58:50.465Z,9.77
2022-11-16T19:01:18.992Z,9.76
2022-11-16T19:03:45.357Z,9.75
2022-11-16T19:06:11.879Z,9.76
2022-11-16T19:08:38.935Z,9.72
2022-11-16T19:11:06.011Z,9.72
2022-11-16T19:13:32.769Z,9.71
2022-11-16T19:16:00.761Z,9.69
2022-11-16T19:18:27.381Z,9.74
2022-11-16T19:21:02.045Z,9.73
2022-11-16T19:23:28.327Z,9.71
2022-11-16T19:25:59.037Z,9.73
2022-11-16T19:28:25.350Z,9.73
2022-11-16T19:30:51.626Z,9.68
2022-11-16T19:33:19.327Z,9.63
2022-11-16T19:35:45.629Z,9.63
2022-11-16T19:38:11.926Z,9.65
2022-11-16T19:40:38.181Z,9.66
2022-11-16T19:43:04.519Z,9.60
2022-11-16T19:45:30.787Z,9.66
2022-11-16T19:47:57.110Z,9.66
2022-11-16T19:50:24.740Z,9.64
2022-11-16T19:52:51.031Z,9.65
2022-11-16T19:55:17.296Z,9.65
2022-11-16T19:57:43.549Z,9.65
2022-11-16T20:00:10.335Z,9.70
2022-11-16T20:02:36.626Z,9.76
2022-11-16T20:05:02.947Z,9.71
2022-11-16T20:07:30.614Z,9.82
2022-11-16T20:09:56.931Z,9.86
2022-11-16T20:12:23.198Z,9.90
2022-11-16T20:14:49.506Z,9.85
2022-11-16T20:17:15.814Z,9.85
2022-11-16T20:19:42.085Z,9.84
2022-11-16T20:22:08.390Z,9.87
2022-11-16T20:24:36.036Z,9.85
2022-11-16T20:27:02.330Z,9.87
2022-11-16T20:29:28.631Z,9.85
2022-11-16T20:31:54.893Z,9.88
2022-11-16T20:34:21.164Z,9.85
2022-11-16T20:36:48.215Z,9.92
2022-11-16T20:39:15.463Z,9.86
2022-11-16T20:41:43.433Z,9.83
2022-11-16T20:44:16.016Z,9.84
2022-11-16T20:46:42.687Z,9.91
2022-11-16T20:49:08.983Z,9.95
2022-11-16T20:51:35.247Z,9.93
2022-11-16T20:54:01.537Z,9.94
2022-11-16T20:56:28.193Z,9.94
2022-11-16T20:58:55.984Z,9.99
2022-11-16T21:01:23.053Z,9.98
2022-11-16T21:03:49.349Z,9.97
2022-11-16T21:06:15.637Z,9.99
2022-11-16T21:08:41.940Z,9.99
2022-11-16T21:11:11.337Z,10.02
2022-11-16T21:13:37.883Z,9.98
2022-11-16T21:16:06.918Z,9.98
2022-11-16T21:18:33.520Z,10.02
2022-11-16T21:20:59.842Z,10.06
2022-11-16T21:23:26.157Z,10.07
2022-11-16T21:25:52.443Z,10.08
2022-11-16T21:28:24.155Z,10.07
2022-11-16T21:30:55.258Z,10.11
2022-11-16T21:33:22.954Z,10.05
2022-11-16T21:35:49.265Z,10.04
2022-11-16T21:38:15.574Z,10.06
2022-11-16T21:40:41.860Z,10.04
2022-11-16T21:43:08.266Z,9.97
2022-11-16T21:45:34.551Z,9.96
2022-11-16T21:48:00.815Z,10.02
2022-11-16T21:50:32.340Z,9.99
2022-11-16T21:52:59.012Z,10.02
2022-11-16T21:55:25.279Z,9.97
2022-11-16T21:57:51.635Z,9.94
2022-11-16T22:00:18.453Z,9.94
2022-11-16T22:02:44.747Z,9.91
2022-11-16T22:05:11.044Z,9.89
2022-11-16T22:07:39.852Z,9.86
2022-11-16T22:10:07.918Z,9.85
2022-11-16T22:12:34.521Z,9.91
2022-11-16T22:15:01.017Z,9.89
2022-11-16T22:17:27.333Z,9.86
2022-11-16T22:19:53.620Z,9.90
2022-11-16T22:22:19.912Z,9.89
2022-11-16T22:24:47.636Z,9.84
2022-11-16T22:27:14.357Z,9.84
2022-11-16T22:29:40.646Z,9.76
2022-11-16T22:32:06.946Z,9.81
2022-11-16T22:34:33.219Z,9.85
2022-11-16T22:36:59.500Z,9.86
2022-11-16T22:39:25.782Z,9.78
2022-11-16T22:41:53.409Z,9.79
2022-11-16T22:44:19.697Z,9.79
2022-11-16T22:46:45.972Z,9.82
2022-11-16T22:49:12.270Z,9.86
2022-11-16T22:51:38.594Z,9.83
2022-11-16T22:54:05.392Z,9.86
2022-11-16T22:56:32.658Z,9.82
2022-11-16T22:59:00.330Z,9.85
2022-11-16T23:01:26.613Z,9.87
2022-11-16T23:03:52.977Z,9.86
2022-11-16T23:06:19.330Z,9.85
2022-11-16T23:08:45.741Z,9.91
2022-11-16T23:11:13.153Z,9.94
2022-11-16T23:13:39.404Z,9.91
2022-11-16T23:16:07.427Z,9.93
2022-11-16T23:18:33.673Z,9.98
2022-11-16T23:20:59.941Z,9.97
2022-11-16T23:23:26.193Z,9.93
2022-11-16T23:25:52.463Z,9.96
2022-11-16T23:28:19.490Z,10.01
2022-11-16T23:30:45.997Z,10.00
2022-11-16T23:33:13.624Z,10.00
2022-11-16T23:35:39.883Z,10.03
2022-11-16T23:38:06.962Z,10.02
2022-11-16T23:40:34.302Z,10.01
2022-11-16T23:43:00.630Z,10.04
2022-11-16T23:45:26.893Z,10.05
2022-11-16T23:47:53.137Z,10.12
2022-11-16T23:50:20.736Z,10.11
2022-11-16T23:52:46.976Z,10.11
2022-11-16T23:55:13.235Z,10.04
2022-11-16T23:57:39.488Z,10.05
